createdAt,value
2023-03-30T00:01:41.905Z,38.95
2023-03-30T00:04:11.808Z,38.85
2023-03-30T00:06:41.863Z,39.04
2023-03-30T00:09:11.504Z,39.04
2023-03-30T00:11:40.438Z,38.90
2023-03-30T00:14:09.454Z,39.07
2023-03-30T00:16:38.517Z,39.03
2023-03-30T00:19:07.500Z,39.13
2023-03-30T00:21:36.852Z,39.11
2023-03-30T00:24:06.292Z,38.88
2023-03-30T00:26:36.397Z,38.98
2023-03-30T00:29:05.238Z,39.00
2023-03-30T00:31:34.313Z,39.22
2023-03-30T00:34:03.334Z,39.24
2023-03-30T00:36:36.562Z,39.02
2023-03-30T00:39:06.189Z,38.88
2023-03-30T00:41:35.845Z,38.95
2023-03-30T00:44:07.223Z,39.14
2023-03-30T00:46:36.482Z,38.84
2023-03-30T00:49:09.295Z,39.16
2023-03-30T00:51:41.171Z,38.98
2023-03-30T00:54:15.141Z,39.24
2023-03-30T00:56:44.773Z,39.01
2023-03-30T00:59:14.384Z,39.16
2023-03-30T01:01:49.434Z,39.34
2023-03-30T01:04:18.735Z,39.28
2023-03-30T01:06:49.095Z,39.35
2023-03-30T01:09:19.303Z,39.51
2023-03-30T01:11:48.657Z,39.39
2023-03-30T01:14:19.017Z,39.28
2023-03-30T01:16:56.200Z,39.58
2023-03-30T01:19:51.796Z,39.66
2023-03-30T01:22:37.213Z,39.78
2023-03-30T01:25:36.163Z,39.51
2023-03-30T01:28:24.844Z,39.76
2023-03-30T01:31:11.947Z,39.58
2023-03-30T01:34:00.531Z,39.79
2023-03-30T01:36:48.520Z,39.90
2023-03-30T01:39:39.249Z,39.93
2023-03-30T01:42:18.978Z,40.11
2023-03-30T01:44:54.891Z,39.92
2023-03-30T01:47:30.817Z,40.01
2023-03-30T01:50:02.262Z,40.15
2023-03-30T01:52:37.957Z,39.95
2023-03-30T01:55:13.234Z,40.21
2023-03-30T01:57:48.180Z,40.19
2023-03-30T02:00:19.809Z,40.40
2023-03-30T02:02:53.939Z,40.49
2023-03-30T02:05:27.031Z,40.35
2023-03-30T02:07:59.411Z,40.40
2023-03-30T02:10:32.653Z,40.37
2023-03-30T02:13:03.988Z,40.63
2023-03-30T02:15:39.028Z,40.60
2023-03-30T02:18:08.397Z,40.69
2023-03-30T02:20:38.288Z,40.83
2023-03-30T02:23:07.966Z,40.76
2023-03-30T02:25:38.646Z,40.98
2023-03-30T02:28:08.689Z,41.05
2023-03-30T02:30:42.606Z,41.20
2023-03-30T02:33:20.963Z,41.08
2023-03-30T02:36:05.176Z,41.18
2023-03-30T02:38:51.053Z,41.23
2023-03-30T02:41:38.646Z,41.23
2023-03-30T02:44:16.767Z,41.21
2023-03-30T02:47:03.061Z,41.44
2023-03-30T02:49:53.495Z,41.37
2023-03-30T02:52:37.198Z,41.42
2023-03-30T02:55:14.185Z,41.84
2023-03-30T02:57:54.736Z,41.59
2023-03-30T03:00:28.614Z,41.58
2023-03-30T03:03:01.829Z,41.46
2023-03-30T03:05:32.046Z,41.84
2023-03-30T03:08:00.983Z,41.51
2023-03-30T03:10:29.929Z,41.82
2023-03-30T03:12:58.939Z,41.78
2023-03-30T03:15:28.415Z,41.94
2023-03-30T03:17:57.946Z,41.71
2023-03-30T03:20:29.890Z,41.68
2023-03-30T03:22:58.925Z,41.88
2023-03-30T03:25:28.001Z,41.55
2023-03-30T03:27:57.157Z,41.31
2023-03-30T03:30:26.144Z,41.27
2023-03-30T03:32:55.247Z,41.15
2023-03-30T03:35:24.327Z,40.93
2023-03-30T03:37:53.176Z,40.65
2023-03-30T03:40:22.125Z,41.03
2023-03-30T03:42:51.292Z,40.66
2023-03-30T03:45:20.286Z,41.05
2023-03-30T03:47:51.829Z,40.82
2023-03-30T03:50:21.436Z,41.18
2023-03-30T03:52:50.799Z,40.62
2023-03-30T03:55:19.890Z,41.05
2023-03-30T03:57:48.827Z,41.28
2023-03-30T04:00:19.580Z,41.55
2023-03-30T04:02:48.881Z,41.45
2023-03-30T04:05:18.182Z,41.55
2023-03-30T04:07:47.271Z,41.45
2023-03-30T04:10:16.605Z,41.47
2023-03-30T04:12:46.064Z,41.07
2023-03-30T04:15:15.302Z,41.25
2023-03-30T04:17:47.310Z,41.07
2023-03-30T04:20:17.499Z,41.15
2023-03-30T04:22:49.573Z,41.07
2023-03-30T04:25:22.462Z,41.18
2023-03-30T04:27:52.207Z,41.45
2023-03-30T04:30:22.528Z,41.59
2023-03-30T04:33:02.059Z,41.57
2023-03-30T04:35:32.714Z,41.91
2023-03-30T04:38:01.820Z,41.31
2023-03-30T04:40:31.112Z,41.78
2023-03-30T04:43:03.146Z,41.82
2023-03-30T04:45:32.487Z,41.53
2023-03-30T04:48:01.519Z,41.49
2023-03-30T04:50:30.529Z,41.33
2023-03-30T04:52:59.387Z,41.59
2023-03-30T04:55:28.480Z,41.24
2023-03-30T04:57:57.443Z,41.42
2023-03-30T05:00:26.996Z,41.76
2023-03-30T05:02:56.318Z,41.69
2023-03-30T05:05:25.304Z,41.22
2023-03-30T05:07:54.196Z,41.53
2023-03-30T05:10:23.207Z,41.79
2023-03-30T05:12:54.933Z,41.41
2023-03-30T05:15:23.951Z,41.42
2023-03-30T05:17:53.598Z,41.47
2023-03-30T05:20:23.452Z,41.49
2023-03-30T05:22:53.155Z,41.32
2023-03-30T05:25:22.190Z,41.24
2023-03-30T05:27:51.089Z,41.25
2023-03-30T05:30:20.308Z,41.35
2023-03-30T05:32:49.367Z,41.26
2023-03-30T05:35:18.604Z,41.24
2023-03-30T05:37:49.784Z,40.95
2023-03-30T05:40:19.497Z,41.23
2023-03-30T05:42:48.431Z,41.06
2023-03-30T05:45:17.585Z,40.79
2023-03-30T05:47:46.721Z,41.11
2023-03-30T05:50:16.064Z,40.61
2023-03-30T05:52:45.223Z,40.65
2023-03-30T05:55:14.700Z,40.66
2023-03-30T05:57:45.108Z,40.70
2023-03-30T06:00:16.451Z,40.40
2023-03-30T06:02:45.738Z,40.48
2023-03-30T06:05:14.891Z,40.50
2023-03-30T06:07:45.185Z,40.30
2023-03-30T06:10:14.503Z,40.30
2023-03-30T06:12:43.497Z,40.41
2023-03-30T06:15:12.935Z,40.35
2023-03-30T06:17:42.212Z,40.13
2023-03-30T06:20:12.737Z,40.27
2023-03-30T06:22:42.079Z,40.13
2023-03-30T06:25:12.857Z,40.25
2023-03-30T06:27:44.134Z,40.19
2023-03-30T06:30:15.424Z,40.38
2023-03-30T06:32:44.462Z,40.23
2023-03-30T06:35:15.269Z,39.86
2023-03-30T06:37:44.287Z,39.78
2023-03-30T06:40:14.572Z,39.57
2023-03-30T06:42:44.131Z,39.54
2023-03-30T06:45:13.599Z,39.87
2023-03-30T06:47:42.775Z,39.63
2023-03-30T06:50:12.823Z,39.34
2023-03-30T06:52:41.840Z,38.93
2023-03-30T06:55:10.846Z,38.78
2023-03-30T06:57:39.814Z,38.54
2023-03-30T07:00:12.966Z,38.36
2023-03-30T07:02:42.680Z,38.32
2023-03-30T07:05:12.477Z,37.75
2023-03-30T07:07:41.460Z,38.05
2023-03-30T07:10:11.854Z,37.90
2023-03-30T07:12:40.848Z,37.83
2023-03-30T07:15:11.791Z,37.56
2023-03-30T07:17:40.955Z,37.09
2023-03-30T07:20:14.313Z,37.02
2023-03-30T07:22:43.315Z,37.37
2023-03-30T07:25:13.977Z,36.95
2023-03-30T07:27:42.965Z,36.49
2023-03-30T07:30:21.875Z,36.31
2023-03-30T07:32:51.664Z,36.87
2023-03-30T07:35:20.823Z,36.71
2023-03-30T07:37:51.010Z,36.46
2023-03-30T07:40:20.762Z,36.45
2023-03-30T07:42:50.423Z,36.00
2023-03-30T07:45:19.372Z,36.24
2023-03-30T07:47:48.538Z,36.12
2023-03-30T07:50:17.810Z,35.89
2023-03-30T07:52:46.872Z,35.42
2023-03-30T07:55:16.209Z,35.07
2023-03-30T07:57:45.831Z,35.16
2023-03-30T08:00:16.617Z,35.27
2023-03-30T08:02:46.084Z,34.87
2023-03-30T08:05:17.382Z,34.81
2023-03-30T08:07:46.419Z,34.29
2023-03-30T08:10:15.599Z,34.39
2023-03-30T08:12:44.688Z,34.40
2023-03-30T08:15:13.945Z,34.39
2023-03-30T08:17:42.974Z,34.29
2023-03-30T08:20:12.880Z,34.07
2023-03-30T08:22:42.000Z,33.96
2023-03-30T08:25:11.385Z,34.00
2023-03-30T08:27:40.323Z,33.88
2023-03-30T08:30:12.651Z,33.32
2023-03-30T08:32:41.757Z,33.54
2023-03-30T08:35:12.765Z,33.97
2023-03-30T08:37:41.741Z,33.66
2023-03-30T08:40:12.335Z,33.38
2023-03-30T08:43:03.840Z,32.80
2023-03-30T08:45:40.319Z,32.89
2023-03-30T08:48:17.237Z,33.05
2023-03-30T08:50:53.646Z,33.11
2023-03-30T08:53:22.766Z,32.63
2023-03-30T08:55:57.575Z,32.37
2023-03-30T08:58:36.288Z,32.64
2023-03-30T09:01:18.022Z,32.07
2023-03-30T09:04:02.058Z,31.92
2023-03-30T09:06:40.364Z,32.22
2023-03-30T09:09:12.835Z,32.27
2023-03-30T09:11:42.331Z,31.50
2023-03-30T09:14:20.588Z,30.73
2023-03-30T09:16:56.666Z,30.60
2023-03-30T09:19:33.241Z,31.14
2023-03-30T09:22:05.826Z,31.46
2023-03-30T09:24:35.530Z,30.98
2023-03-30T09:27:15.516Z,30.95
2023-03-30T09:29:48.302Z,31.14
2023-03-30T09:32:32.054Z,30.23
2023-03-30T09:35:07.157Z,30.33
2023-03-30T09:37:37.094Z,30.02
2023-03-30T09:40:23.292Z,30.53
2023-03-30T09:42:55.282Z,30.62
2023-03-30T09:45:30.789Z,30.08
2023-03-30T09:48:07.610Z,29.64
2023-03-30T09:50:40.428Z,29.08
2023-03-30T09:53:24.239Z,29.55
2023-03-30T09:56:00.173Z,29.49
2023-03-30T09:58:30.848Z,29.67
2023-03-30T10:01:06.746Z,29.35
2023-03-30T10:03:36.532Z,29.68
2023-03-30T10:06:09.654Z,28.58
2023-03-30T10:08:49.313Z,29.23
2023-03-30T10:11:22.495Z,28.65
2023-03-30T10:13:51.484Z,28.33
2023-03-30T10:16:26.291Z,28.50
2023-03-30T10:18:59.720Z,28.75
2023-03-30T10:21:32.056Z,28.67
2023-03-30T10:24:07.603Z,28.30
2023-03-30T10:26:38.775Z,27.71
2023-03-30T10:29:12.297Z,28.05
2023-03-30T10:31:46.115Z,28.22
2023-03-30T10:34:18.863Z,28.41
2023-03-30T10:36:54.669Z,28.51
2023-03-30T10:39:27.910Z,28.34
2023-03-30T10:42:00.003Z,27.92
2023-03-30T10:44:32.492Z,27.11
2023-03-30T10:47:20.470Z,26.78
2023-03-30T10:50:01.306Z,27.75
2023-03-30T10:52:48.738Z,27.25
2023-03-30T10:55:32.584Z,27.63
2023-03-30T10:58:12.743Z,27.45
2023-03-30T11:00:55.201Z,27.44
2023-03-30T11:03:28.640Z,27.84
2023-03-30T11:06:02.935Z,27.69
2023-03-30T11:08:37.193Z,27.37
2023-03-30T11:11:11.553Z,26.72
2023-03-30T11:13:44.705Z,26.93
2023-03-30T11:16:20.595Z,27.12
2023-03-30T11:18:56.996Z,27.46
2023-03-30T11:21:34.241Z,27.39
2023-03-30T11:24:09.932Z,27.35
2023-03-30T11:26:39.332Z,27.18
2023-03-30T11:29:23.629Z,27.31
2023-03-30T11:31:59.870Z,27.29
2023-03-30T11:34:35.100Z,27.08
2023-03-30T11:37:12.988Z,26.72
2023-03-30T11:39:50.465Z,26.84
2023-03-30T11:42:24.676Z,26.85
2023-03-30T11:44:53.798Z,26.16
2023-03-30T11:47:42.705Z,26.53
2023-03-30T11:50:23.837Z,26.66
2023-03-30T11:53:05.423Z,26.33
2023-03-30T11:55:51.473Z,26.61
2023-03-30T11:58:28.674Z,26.57
2023-03-30T12:01:18.447Z,26.23
2023-03-30T12:03:51.472Z,26.00
2023-03-30T12:06:29.446Z,26.39
2023-03-30T12:09:06.735Z,26.37
2023-03-30T12:11:41.555Z,26.40
2023-03-30T12:14:31.110Z,26.40
2023-03-30T12:17:06.640Z,26.19
2023-03-30T12:19:55.543Z,26.18
2023-03-30T12:22:34.280Z,26.08
2023-03-30T12:25:15.002Z,25.96
2023-03-30T12:28:11.158Z,25.75
2023-03-30T12:30:47.876Z,25.84
2023-03-30T12:33:25.919Z,25.89
2023-03-30T12:35:58.717Z,25.95
2023-03-30T12:38:37.828Z,25.75
2023-03-30T12:41:17.568Z,25.99
2023-03-30T12:44:14.327Z,25.95
2023-03-30T12:46:49.448Z,25.85
2023-03-30T12:49:29.091Z,25.83
2023-03-30T12:52:09.046Z,25.86
2023-03-30T12:54:59.759Z,25.98
2023-03-30T12:57:41.852Z,25.96
2023-03-30T13:00:36.593Z,25.92
2023-03-30T13:03:29.270Z,25.87
2023-03-30T13:06:01.007Z,25.78
2023-03-30T13:08:34.994Z,25.67
2023-03-30T13:11:14.467Z,25.40
2023-03-30T13:13:50.195Z,25.33
2023-03-30T13:16:32.242Z,25.68
2023-03-30T13:19:14.010Z,25.40
2023-03-30T13:21:55.242Z,25.61
2023-03-30T13:24:36.380Z,25.27
2023-03-30T13:27:28.964Z,25.50
2023-03-30T13:30:00.528Z,25.41
2023-03-30T13:32:43.029Z,25.13
2023-03-30T13:35:28.808Z,25.00
2023-03-30T13:38:16.866Z,25.12
2023-03-30T13:41:04.483Z,24.99
2023-03-30T13:44:03.128Z,24.86
2023-03-30T13:46:38.178Z,25.21
2023-03-30T13:49:31.890Z,25.33
2023-03-30T13:52:06.026Z,25.22
2023-03-30T13:54:38.028Z,25.08
2023-03-30T13:57:11.183Z,25.03
2023-03-30T13:59:45.439Z,24.54
2023-03-30T14:02:17.783Z,24.70
2023-03-30T14:04:49.930Z,24.44
2023-03-30T14:07:21.816Z,24.87
2023-03-30T14:10:13.672Z,24.81
2023-03-30T14:12:44.477Z,25.02
2023-03-30T14:15:23.272Z,25.17
2023-03-30T14:17:55.121Z,25.17
2023-03-30T14:20:46.607Z,25.07
2023-03-30T14:23:18.554Z,24.59
2023-03-30T14:25:47.527Z,24.42
2023-03-30T14:28:18.337Z,24.73
2023-03-30T14:30:52.332Z,24.87
2023-03-30T14:33:21.364Z,24.95
2023-03-30T14:35:52.952Z,25.00
2023-03-30T14:38:25.988Z,24.96
2023-03-30T14:40:56.229Z,24.91
2023-03-30T14:43:28.748Z,24.80
2023-03-30T14:46:02.876Z,24.81
2023-03-30T14:48:35.305Z,24.55
2023-03-30T14:51:08.959Z,24.48
2023-03-30T14:53:38.054Z,23.99
2023-03-30T14:56:11.204Z,24.34
2023-03-30T14:58:41.233Z,24.53
2023-03-30T15:01:16.834Z,24.65
2023-03-30T15:03:48.436Z,24.49
2023-03-30T15:06:24.547Z,23.98
2023-03-30T15:08:59.275Z,24.16
2023-03-30T15:11:30.029Z,24.08
2023-03-30T15:14:07.791Z,24.19
2023-03-30T15:16:37.736Z,24.30
2023-03-30T15:19:11.956Z,24.23
2023-03-30T15:21:41.720Z,24.36
2023-03-30T15:24:16.706Z,24.45
2023-03-30T15:26:48.721Z,24.41
2023-03-30T15:29:20.164Z,24.47
2023-03-30T15:32:00.338Z,24.43
2023-03-30T15:34:29.253Z,24.48
2023-03-30T15:36:58.348Z,24.48
2023-03-30T15:39:33.351Z,24.45
2023-03-30T15:42:04.823Z,24.57
2023-03-30T15:44:36.587Z,24.59
2023-03-30T15:47:10.428Z,24.47
2023-03-30T15:49:47.068Z,24.38
2023-03-30T15:52:20.256Z,24.63
2023-03-30T15:54:53.298Z,24.56
2023-03-30T15:57:24.859Z,24.58
2023-03-30T15:59:56.713Z,24.64
2023-03-30T16:02:38.435Z,24.70
2023-03-30T16:05:16.060Z,24.73
2023-03-30T16:07:45.338Z,24.69
2023-03-30T16:10:16.904Z,24.57
2023-03-30T16:12:48.008Z,24.91
2023-03-30T16:15:19.739Z,24.74
2023-03-30T16:17:48.886Z,24.72
2023-03-30T16:20:20.245Z,24.79
2023-03-30T16:22:49.706Z,24.80
2023-03-30T16:25:21.158Z,24.92
2023-03-30T16:27:50.537Z,24.88
2023-03-30T16:30:25.496Z,24.86
2023-03-30T16:32:54.493Z,24.97
2023-03-30T16:35:23.511Z,24.84
2023-03-30T16:37:52.542Z,24.88
2023-03-30T16:40:30.575Z,24.96
2023-03-30T16:43:00.177Z,25.13
2023-03-30T16:45:29.574Z,25.16
2023-03-30T16:47:58.739Z,25.20
2023-03-30T16:50:34.556Z,25.20
2023-03-30T16:53:03.689Z,25.07
2023-03-30T16:55:33.334Z,25.24
2023-03-30T16:58:02.299Z,25.29
2023-03-30T17:00:33.285Z,25.20
2023-03-30T17:03:02.377Z,25.35
2023-03-30T17:05:31.724Z,25.41
2023-03-30T17:08:05.444Z,25.41
2023-03-30T17:10:37.108Z,25.50
2023-03-30T17:13:06.191Z,25.52
2023-03-30T17:15:37.873Z,25.45
2023-03-30T17:18:08.580Z,25.49
2023-03-30T17:20:41.625Z,25.57
2023-03-30T17:23:11.978Z,25.55
2023-03-30T17:25:41.426Z,25.59
2023-03-30T17:28:15.982Z,25.61
2023-03-30T17:30:45.036Z,25.71
2023-03-30T17:33:14.425Z,25.75
2023-03-30T17:35:46.434Z,25.61
2023-03-30T17:38:17.128Z,25.73
2023-03-30T17:40:47.989Z,25.88
2023-03-30T17:43:17.168Z,25.83
2023-03-30T17:45:46.834Z,25.81
2023-03-30T17:48:17.819Z,25.73
2023-03-30T17:50:49.295Z,25.74
2023-03-30T17:53:20.295Z,25.72
2023-03-30T17:55:51.311Z,25.87
2023-03-30T17:58:22.778Z,25.85
2023-03-30T18:00:53.241Z,25.84
2023-03-30T18:03:25.058Z,25.96
2023-03-30T18:05:55.318Z,25.90
2023-03-30T18:08:26.058Z,25.91
2023-03-30T18:10:55.946Z,25.86
2023-03-30T18:13:26.386Z,25.97
2023-03-30T18:15:57.163Z,25.94
2023-03-30T18:18:28.791Z,25.99
2023-03-30T18:21:01.822Z,26.08
2023-03-30T18:23:32.620Z,26.10
2023-03-30T18:26:02.152Z,26.07
2023-03-30T18:28:31.842Z,26.14
2023-03-30T18:31:01.135Z,26.20
2023-03-30T18:33:30.230Z,26.14
2023-03-30T18:36:04.293Z,26.28
2023-03-30T18:38:33.646Z,26.15
2023-03-30T18:41:06.035Z,26.18
2023-03-30T18:43:35.141Z,26.26
2023-03-30T18:46:06.258Z,26.25
2023-03-30T18:48:35.368Z,26.21
2023-03-30T18:51:04.363Z,26.35
2023-03-30T18:53:33.392Z,26.27
2023-03-30T18:56:02.759Z,26.39
2023-03-30T18:58:35.176Z,26.33
2023-03-30T19:01:04.541Z,26.39
2023-03-30T19:03:33.889Z,26.35
2023-03-30T19:06:03.368Z,26.40
2023-03-30T19:08:32.706Z,26.41
2023-03-30T19:11:01.692Z,26.41
2023-03-30T19:13:30.591Z,26.46
2023-03-30T19:16:00.011Z,26.37
2023-03-30T19:18:28.993Z,26.48
2023-03-30T19:20:58.057Z,26.43
2023-03-30T19:23:28.532Z,26.52
2023-03-30T19:25:57.593Z,26.43
2023-03-30T19:28:26.613Z,26.49
2023-03-30T19:30:55.621Z,26.55
2023-03-30T19:33:24.904Z,26.59
2023-03-30T19:35:53.950Z,26.57
2023-03-30T19:38:22.960Z,26.52
2023-03-30T19:40:51.904Z,26.72
2023-03-30T19:43:21.682Z,26.69
2023-03-30T19:45:51.451Z,26.81
2023-03-30T19:48:20.576Z,26.75
2023-03-30T19:50:50.499Z,26.80
2023-03-30T19:53:19.451Z,26.77
2023-03-30T19:55:48.400Z,26.88
2023-03-30T19:58:17.476Z,26.85
2023-03-30T20:00:48.915Z,26.92
2023-03-30T20:03:17.991Z,26.96
2023-03-30T20:05:50.958Z,26.96
2023-03-30T20:08:24.530Z,26.94
2023-03-30T20:10:54.410Z,26.97
2023-03-30T20:13:24.025Z,26.93
2023-03-30T20:15:56.349Z,26.96
2023-03-30T20:18:25.484Z,26.98
2023-03-30T20:20:54.310Z,26.98
2023-03-30T20:23:23.694Z,26.86
2023-03-30T20:25:56.178Z,27.03
2023-03-30T20:28:25.180Z,26.92
2023-03-30T20:30:56.736Z,26.94
2023-03-30T20:33:25.771Z,27.00
2023-03-30T20:35:55.965Z,26.97
2023-03-30T20:38:25.028Z,26.90
2023-03-30T20:40:58.630Z,27.02
2023-03-30T20:43:27.541Z,26.92
2023-03-30T20:46:01.706Z,26.95
2023-03-30T20:48:32.930Z,26.99
2023-03-30T20:51:03.073Z,26.98
2023-03-30T20:53:33.756Z,27.06
2023-03-30T20:56:04.136Z,27.02
2023-03-30T20:58:33.181Z,27.03
2023-03-30T21:01:11.965Z,27.02
2023-03-30T21:03:43.492Z,27.07
2023-03-30T21:06:15.604Z,27.13
2023-03-30T21:08:44.719Z,27.02
2023-03-30T21:11:13.598Z,27.06
2023-03-30T21:13:42.434Z,27.11
2023-03-30T21:16:11.372Z,27.25
2023-03-30T21:18:40.678Z,27.17
2023-03-30T21:21:10.079Z,27.21
2023-03-30T21:23:40.112Z,27.44
2023-03-30T21:26:09.426Z,27.30
2023-03-30T21:28:38.911Z,27.40
2023-03-30T21:31:11.176Z,27.58
2023-03-30T21:33:40.720Z,27.52
2023-03-30T21:36:11.860Z,27.59
2023-03-30T21:38:41.170Z,27.77
2023-03-30T21:41:13.013Z,27.70
2023-03-30T21:43:43.715Z,27.72
2023-03-30T21:46:14.915Z,27.79
2023-03-30T21:48:45.463Z,27.86
2023-03-30T21:51:15.755Z,27.83
2023-03-30T21:53:47.620Z,27.92
2023-03-30T21:56:18.133Z,27.91
2023-03-30T21:58:47.025Z,27.93
2023-03-30T22:01:20.071Z,27.97
2023-03-30T22:03:49.551Z,28.04
2023-03-30T22:06:18.837Z,27.95
2023-03-30T22:08:48.162Z,28.00
2023-03-30T22:11:19.205Z,28.09
2023-03-30T22:13:49.165Z,28.06
2023-03-30T22:16:21.720Z,28.08
2023-03-30T22:18:51.954Z,28.11
2023-03-30T22:21:23.304Z,28.12
2023-03-30T22:23:54.123Z,28.03
2023-03-30T22:26:23.684Z,28.14
2023-03-30T22:28:52.718Z,27.99
2023-03-30T22:31:21.903Z,28.05
2023-03-30T22:33:52.644Z,27.97
2023-03-30T22:36:23.635Z,27.99
2023-03-30T22:38:52.897Z,27.96
2023-03-30T22:41:23.532Z,28.09
2023-03-30T22:43:54.235Z,28.11
2023-03-30T22:46:24.503Z,28.11
2023-03-30T22:48:54.883Z,28.19
2023-03-30T22:51:25.482Z,28.27
2023-03-30T22:53:58.003Z,28.26
2023-03-30T22:56:27.564Z,28.29
2023-03-30T22:58:56.881Z,28.26
2023-03-30T23:01:28.513Z,28.48
2023-03-30T23:03:58.967Z,28.53
2023-03-30T23:06:28.279Z,28.57
2023-03-30T23:08:58.100Z,28.70
2023-03-30T23:11:28.540Z,28.77
2023-03-30T23:14:04.548Z,28.80
2023-03-30T23:16:33.628Z,28.85
2023-03-30T23:19:02.750Z,28.87
2023-03-30T23:21:33.870Z,28.89
2023-03-30T23:24:04.504Z,29.00
2023-03-30T23:26:35.805Z,29.00
2023-03-30T23:29:05.427Z,29.13
2023-03-30T23:31:34.688Z,29.10
2023-03-30T23:34:03.752Z,29.25
2023-03-30T23:36:32.711Z,29.19
2023-03-30T23:39:01.618Z,29.24
2023-03-30T23:41:30.650Z,29.23
2023-03-30T23:43:59.690Z,29.25
2023-03-30T23:46:29.258Z,29.20
2023-03-30T23:48:58.491Z,29.29
2023-03-30T23:51:27.686Z,29.36
2023-03-30T23:53:59.460Z,29.47
2023-03-30T23:56:31.514Z,29.30
2023-03-30T23:59:00.728Z,29.43
